Aeroporto :
LOGIN :

Iscrizione | Disclaimer

   EN    FR    IT 

 










Sommario :    VFR   VFR Marginale   IFR   IFR Intensivo   IFR Molto Intensivo
Visibilità : 
Base nubi : 
>= 8 km
>= 3000ft
5 / 8 km
1000 / 3000 ft
1500m / 5 km
500 / 1000 ft
800 / 1500m
200 / 500 ft
< 800m
< 200 ft
Simboli :   Temporali  Nebbia  Neve Forte  Precipitazioni Forti  Vento > 20 kt
SIGMETs :   Varie  Temporali  Ghiacco  Turbolenza  Onda orograficha  Ceneri Vulcaniche






- Altitudine del aeroporto : 219 ft
- Codice IATA : DNR


LFRD - Dinard

ULTIMO METAR :
  • 260330Z AUTO 12005KT 4400 BR NSC 06/06 Q1017 TEMPO 0300 BECMG VV///

METARs OBSOLETI :
  • 260300Z AUTO 11005KT 2700 0900 R35L/1200D BCFG NSC 06/06 Q1017 TEMPO 0300 BECMG VV///
  • 260230Z AUTO 08003KT 1700 1000 R35L/1600U BR NSC 07/06 Q1018 TEMPO 0300 BECMG VV///
  • 260200Z AUTO 09004KT 2200 BR NSC 07/07 Q1018 BECMG 0500 FG VV///
  • 260130Z AUTO VRB02KT 0800 0550 R35L/1000U FG FEW031 SCT037 07/06 Q1018 BECMG 0500 FG VV///
  • 260100Z AUTO 10006KT 2900 BR FEW036 06/06 Q1018 BECMG 0500 FG VV///
  • 260030Z AUTO 11002KT 2600 BR FEW040 07/06 Q1017 BECMG 0500 FG VV///

TAF TAF LFRD
Valido dal 26 a 00 ore il 27 a 00 ore UTC


252300Z 2600/2624 VRB03KT 3000 BR SCT020
BECMG 2600/2603 0500 FG VV///
PROB30
TEMPO 2604/2608 0300
BECMG 2608/2610 9999 NSW SCT020
TEMPO 2610/2613 1500 BR BKN003
TEMPO 2613/2618 BKN007
PROB30
TEMPO 2616/2620 05010KT
TEMPO 2618/2624 2000 BR BKN003
ATIS : +33 2 99 16 81 50



MetMap, La meteo Aeronautica in un colpo d'occhio ! - Copyright ORBIFLY Dicembre 2007 - Disclaimer

ORBIFLY MET'MAP TEAM :

Programmazione e sviluppo : Alexandra Zaïnal
Concezione : Baudouin d'Aumeries
Aiuto per la programmazione : Marc-Olivier Méhu
Supporto tecnico e logistico : Manuel Goepfert
Aiuto per la traduzione : Arnaldo La Scala

Contatto : metmap@orbifly.com




FONTI E CREDITI :

   NOAA